Time;durP1;ratioP1;P1;durP2;ratioP2;P2;SDS_P1;SDS_P2;PMS_P1;PMS_P2;Temp;Humidity;BMP_temperature;BMP_pressure;BME280_temperature;BME280_humidity;BME280_pressure;Samples;Min_cycle;Max_cycle;Signal;HPM_P1;HPM_P2
2021/05/05 00:02:18;;;;;;;12.07;6.83;;;;;;;4.45;73.77;100291.78;1749010;80;21180;-72
2021/05/05 00:04:46;;;;;;;8.70;6.33;;;;;;;4.43;73.74;100292.00;1783471;79;22387;-71
2021/05/05 00:07:16;;;;;;;11.38;6.30;;;;;;;4.43;73.71;100288.03;1757464;80;21176;-71
2021/05/05 00:09:45;;;;;;;10.08;6.72;;;;;;;4.43;73.70;100284.06;1782319;78;21208;-70
2021/05/05 00:12:13;;;;;;;9.13;6.45;;;;;;;4.41;73.68;100278.20;1780494;79;21088;-71
2021/05/05 00:14:42;;;;;;;9.55;6.25;;;;;;;4.41;73.68;100270.80;1720043;81;21098;-70
2021/05/05 00:17:10;;;;;;;9.03;6.12;;;;;;;4.39;73.66;100276.81;1763312;81;21284;-70
2021/05/05 00:19:39;;;;;;;8.88;6.10;;;;;;;4.38;73.62;100273.88;1770681;80;21159;-71
2021/05/05 00:22:07;;;;;;;9.10;6.05;;;;;;;4.38;73.58;100277.33;1762692;80;21140;-70
2021/05/05 00:24:36;;;;;;;10.10;6.33;;;;;;;4.37;73.54;100277.02;1777967;80;21662;-71
2021/05/05 00:27:05;;;;;;;8.58;5.95;;;;;;;4.39;73.51;100274.97;1760672;80;21175;-72
2021/05/05 00:29:33;;;;;;;8.30;6.15;;;;;;;4.41;73.45;100270.27;1772113;79;21364;-72
2021/05/05 00:32:01;;;;;;;9.85;6.33;;;;;;;4.44;73.37;100275.61;1739342;82;21098;-71
2021/05/05 00:34:30;;;;;;;10.05;6.35;;;;;;;4.44;73.28;100273.80;1780930;79;21564;-70
2021/05/05 00:36:57;;;;;;;8.78;5.87;;;;;;;4.45;73.16;100268.79;1774141;80;21632;-71
2021/05/05 00:39:25;;;;;;;8.80;6.00;;;;;;;4.43;73.05;100270.03;1772873;80;21675;-70
2021/05/05 00:41:54;;;;;;;8.68;6.22;;;;;;;4.42;72.96;100271.88;1778169;80;21199;-71
2021/05/05 00:44:24;;;;;;;8.38;5.95;;;;;;;4.40;72.88;100260.70;1782111;79;21189;-71
2021/05/05 00:46:52;;;;;;;8.35;5.90;;;;;;;4.39;72.81;100264.91;1756165;80;21151;-71
2021/05/05 00:49:21;;;;;;;10.40;6.20;;;;;;;4.37;72.76;100257.19;1744759;80;21210;-70
2021/05/05 00:51:49;;;;;;;9.20;6.00;;;;;;;4.35;72.68;100252.66;1741254;80;21122;-70
2021/05/05 00:54:18;;;;;;;7.58;5.55;;;;;;;4.33;72.59;100263.95;1747243;81;22141;-71
2021/05/05 00:56:46;;;;;;;8.50;6.45;;;;;;;4.32;72.51;100261.03;1768898;79;21194;-71
2021/05/05 00:59:14;;;;;;;11.43;6.10;;;;;;;4.29;72.46;100257.51;1772355;80;21645;-71
2021/05/05 01:01:42;;;;;;;8.85;6.28;;;;;;;4.26;72.41;100250.02;1757042;79;21176;-71
2021/05/05 01:04:11;;;;;;;7.22;5.50;;;;;;;4.23;72.36;100259.71;1768329;80;21085;-71
2021/05/05 01:06:42;;;;;;;8.90;5.92;;;;;;;4.20;72.35;100261.47;1777130;79;21674;-71
2021/05/05 01:09:11;;;;;;;8.65;5.75;;;;;;;4.19;72.34;100253.27;1755619;79;21925;-71
2021/05/05 01:11:39;;;;;;;9.80;6.10;;;;;;;4.18;72.30;100260.91;1743060;80;21608;-71
2021/05/05 01:14:10;;;;;;;9.18;5.75;;;;;;;4.17;72.21;100256.11;1729920;81;21146;-71
2021/05/05 01:16:38;;;;;;;9.00;5.87;;;;;;;4.15;72.15;100259.52;1742319;80;21165;-71
2021/05/05 01:19:06;;;;;;;7.45;5.62;;;;;;;4.14;72.11;100246.50;1753539;81;22350;-71
2021/05/05 01:21:35;;;;;;;9.25;5.70;;;;;;;4.12;72.06;100246.73;1774387;80;21259;-70
2021/05/05 01:24:06;;;;;;;8.25;4.83;;;;;;;4.10;72.09;100250.63;1775942;80;21148;-70
2021/05/05 01:26:34;;;;;;;8.65;5.83;;;;;;;4.09;72.08;100253.78;1775875;79;21640;-70
2021/05/05 01:29:03;;;;;;;8.75;5.45;;;;;;;4.08;72.10;100249.53;1761946;81;21065;-70
2021/05/05 01:31:32;;;;;;;9.40;5.22;;;;;;;4.07;72.12;100250.55;1748134;80;21556;-70
2021/05/05 01:34:00;;;;;;;8.45;5.92;;;;;;;4.07;72.14;100247.09;1774777;80;21688;-70
2021/05/05 01:36:35;;;;;;;8.38;5.58;;;;;;;4.04;72.11;100240.41;1745305;80;21132;-70
2021/05/05 01:39:12;;;;;;;10.00;6.05;;;;;;;4.03;72.06;100245.41;1731910;81;21184;-70
2021/05/05 01:41:41;;;;;;;7.55;5.58;;;;;;;4.00;72.01;100237.92;1744155;80;21181;-70
2021/05/05 01:44:09;;;;;;;8.23;5.45;;;;;;;3.98;72.04;100236.01;1780899;80;21364;-70
2021/05/05 01:46:48;;;;;;;7.42;5.47;;;;;;;3.96;72.03;100238.08;1784679;79;21152;-71
2021/05/05 01:49:21;;;;;;;10.53;5.37;;;;;;;3.94;72.06;100226.39;1760534;80;21604;-72
2021/05/05 01:51:50;;;;;;;7.70;5.42;;;;;;;3.94;72.07;100233.00;1743575;80;21530;-72
2021/05/05 01:54:19;;;;;;;7.75;5.40;;;;;;;3.94;72.01;100227.72;1747518;81;21102;-70
2021/05/05 01:56:47;;;;;;;9.80;5.60;;;;;;;3.96;71.95;100227.52;1781409;79;22216;-71
2021/05/05 01:59:15;;;;;;;7.83;5.28;;;;;;;3.95;71.90;100230.67;1751541;80;21172;-71
2021/05/05 02:01:43;;;;;;;8.60;5.70;;;;;;;3.95;71.92;100224.07;1774702;79;21212;-71
2021/05/05 02:04:11;;;;;;;8.00;5.33;;;;;;;3.94;71.93;100235.64;1757440;80;21184;-72
2021/05/05 02:06:49;;;;;;;7.93;5.10;;;;;;;4.00;71.93;100238.73;1835368;77;22710;-71
2021/05/05 02:09:19;;;;;;;7.60;5.25;;;;;;;3.97;71.89;100237.84;1789764;78;21069;-71
2021/05/05 02:11:47;;;;;;;8.45;5.35;;;;;;;3.98;71.93;100233.37;1784771;78;22297;-71
2021/05/05 02:14:17;;;;;;;9.50;5.80;;;;;;;3.99;71.91;100232.36;1773656;80;21130;-71
2021/05/05 02:16:45;;;;;;;8.30;5.40;;;;;;;4.00;71.87;100226.84;1773776;79;21126;-71
2021/05/05 02:19:17;;;;;;;10.35;6.37;;;;;;;4.00;71.79;100224.20;1794557;77;21582;-71
2021/05/05 02:21:44;;;;;;;7.80;5.12;;;;;;;4.02;71.67;100219.22;1812324;79;21131;-72
2021/05/05 02:24:12;;;;;;;7.55;5.33;;;;;;;4.04;71.57;100218.47;1801225;79;21358;-70
2021/05/05 02:26:41;;;;;;;8.45;5.62;;;;;;;4.04;71.56;100215.30;1808442;79;21133;-70
2021/05/05 02:29:09;;;;;;;9.08;5.40;;;;;;;4.06;71.48;100217.22;1772257;79;22444;-71
2021/05/05 02:31:50;;;;;;;8.07;5.10;;;;;;;4.10;71.41;100212.30;1834815;76;22830;-71
2021/05/05 02:34:19;;;;;;;8.15;5.35;;;;;;;4.07;71.36;100212.73;1794736;79;21230;-70
2021/05/05 02:36:48;;;;;;;8.30;5.22;;;;;;;4.07;71.32;100211.42;1800963;77;21203;-70
2021/05/05 02:39:19;;;;;;;9.63;5.60;;;;;;;4.06;71.25;100210.62;1791529;79;20937;-70
2021/05/05 02:41:48;;;;;;;10.35;5.65;;;;;;;4.05;71.19;100210.82;1802232;79;21159;-70
2021/05/05 02:44:16;;;;;;;8.50;5.30;;;;;;;4.05;71.16;100206.37;1793599;77;21135;-71
2021/05/05 02:46:44;;;;;;;8.45;5.47;;;;;;;4.05;71.14;100209.50;1799400;79;21155;-71
2021/05/05 02:49:13;;;;;;;7.90;5.40;;;;;;;4.09;71.10;100202.77;1796995;79;21206;-71
2021/05/05 02:51:42;;;;;;;9.13;5.40;;;;;;;4.12;71.04;100197.03;1790972;79;21202;-71
2021/05/05 02:54:11;;;;;;;8.90;5.45;;;;;;;4.17;70.98;100199.80;1802442;79;21100;-71
2021/05/05 02:56:39;;;;;;;6.65;5.42;;;;;;;4.21;70.86;100192.54;1797276;77;21092;-72
2021/05/05 02:59:07;;;;;;;6.22;5.12;;;;;;;4.28;70.77;100191.62;1796132;79;21590;-71
2021/05/05 03:01:34;;;;;;;9.93;5.05;;;;;;;4.34;70.68;100197.34;1789820;77;22139;-72
2021/05/05 03:04:04;;;;;;;8.28;5.28;;;;;;;4.39;70.57;100189.55;1792472;79;21630;-70
2021/05/05 03:06:33;;;;;;;9.18;5.40;;;;;;;4.45;70.48;100184.16;1805237;79;21147;-70
2021/05/05 03:09:06;;;;;;;7.22;5.10;;;;;;;4.54;70.43;100183.34;1808383;79;21044;-70
2021/05/05 03:11:34;;;;;;;7.53;5.75;;;;;;;4.57;70.37;100182.86;1803630;79;21179;-70
2021/05/05 03:14:04;;;;;;;8.75;5.85;;;;;;;4.66;70.26;100179.37;1793028;79;21206;-71
2021/05/05 03:16:32;;;;;;;8.08;6.05;;;;;;;4.72;70.15;100177.16;1804272;79;21127;-71
2021/05/05 03:19:01;;;;;;;7.10;5.28;;;;;;;4.82;69.96;100179.24;1791184;79;21107;-71
2021/05/05 03:21:29;;;;;;;6.62;5.05;;;;;;;4.91;69.79;100177.36;1802904;79;21155;-71
2021/05/05 03:23:57;;;;;;;8.10;5.05;;;;;;;5.01;69.67;100170.70;1805560;79;21067;-72
2021/05/05 03:26:26;;;;;;;7.20;4.90;;;;;;;5.12;69.52;100173.85;1800303;79;21380;-72
2021/05/05 03:28:54;;;;;;;9.33;5.33;;;;;;;5.24;69.49;100172.55;1797774;79;21139;-72
2021/05/05 03:31:22;;;;;;;6.62;4.95;;;;;;;5.35;69.40;100176.48;1815321;79;21099;-72
2021/05/05 03:33:50;;;;;;;8.33;4.97;;;;;;;5.49;69.25;100170.95;1800034;77;21587;-71
2021/05/05 03:36:18;;;;;;;6.75;4.85;;;;;;;5.61;69.12;100164.59;1792731;79;21155;-71
2021/05/05 03:38:46;;;;;;;10.43;5.28;;;;;;;5.75;68.94;100161.16;1788523;79;21994;-72
2021/05/05 03:41:15;;;;;;;8.53;5.08;;;;;;;5.91;68.80;100163.59;1802772;77;21139;-71
2021/05/05 03:43:44;;;;;;;7.35;4.67;;;;;;;6.04;68.61;100161.22;1798147;77;21578;-71
2021/05/05 03:46:13;;;;;;;7.08;4.30;;;;;;;6.19;68.39;100165.50;1792538;79;21633;-71
2021/05/05 03:48:41;;;;;;;6.42;4.95;;;;;;;6.33;68.23;100156.72;1787887;79;21652;-71
2021/05/05 03:51:11;;;;;;;6.67;4.80;;;;;;;6.49;68.12;100156.47;1793436;79;21254;-71
2021/05/05 03:53:39;;;;;;;6.47;4.33;;;;;;;6.65;68.00;100159.66;1786460;79;21146;-71
2021/05/05 03:56:07;;;;;;;7.03;4.10;;;;;;;6.84;67.91;100160.73;1792212;79;21167;-71
2021/05/05 03:58:36;;;;;;;6.40;4.45;;;;;;;7.00;67.67;100163.38;1804543;79;21180;-71
2021/05/05 04:01:04;;;;;;;6.45;4.08;;;;;;;7.20;67.35;100160.21;1795141;77;21162;-71
2021/05/05 04:03:33;;;;;;;5.72;4.00;;;;;;;7.40;67.03;100164.20;1790240;79;21384;-70
2021/05/05 04:06:01;;;;;;;5.65;3.47;;;;;;;7.60;66.50;100161.00;1793298;77;21634;-71
2021/05/05 04:08:30;;;;;;;5.05;3.65;;;;;;;7.80;66.01;100160.45;1799572;79;21114;-71
2021/05/05 04:10:58;;;;;;;5.90;3.72;;;;;;;7.99;65.48;100163.89;1786353;79;21230;-72
2021/05/05 04:13:27;;;;;;;4.08;3.08;;;;;;;8.20;64.93;100152.13;1785905;79;21139;-71
2021/05/05 04:16:13;;;;;;;4.53;3.30;;;;;;;8.42;64.27;100156.08;1790555;77;21200;-71
2021/05/05 04:18:59;;;;;;;4.03;2.92;;;;;;;8.62;63.61;100148.30;1792821;79;21166;-70
2021/05/05 04:21:45;;;;;;;4.80;3.22;;;;;;;8.84;63.04;100148.18;1785585;79;21598;-71
2021/05/05 04:24:31;;;;;;;4.95;3.50;;;;;;;9.06;62.42;100149.41;1794623;77;21146;-71
2021/05/05 04:26:59;;;;;;;6.78;3.60;;;;;;;9.28;61.67;100139.13;1802602;79;21147;-71
2021/05/05 04:29:27;;;;;;;5.62;3.30;;;;;;;9.47;61.13;100133.63;1786503;79;21195;-71
2021/05/05 04:31:57;;;;;;;4.60;3.20;;;;;;;9.67;60.52;100134.78;1787781;79;21210;-71
2021/05/05 04:34:26;;;;;;;6.92;3.30;;;;;;;9.88;59.86;100129.80;1796165;79;21566;-70
2021/05/05 04:36:55;;;;;;;4.90;3.02;;;;;;;10.07;59.20;100130.12;1797948;79;21120;-70
2021/05/05 04:39:25;;;;;;;5.90;3.25;;;;;;;10.26;58.07;100128.56;1796226;79;21139;-72
2021/05/05 04:41:53;;;;;;;5.97;3.17;;;;;;;10.47;57.45;100127.27;1799222;77;21594;-70
2021/05/05 04:44:21;;;;;;;5.30;3.10;;;;;;;10.65;57.00;100121.38;1797404;77;21182;-70
2021/05/05 04:46:49;;;;;;;4.35;2.95;;;;;;;10.84;56.32;100121.64;1796537;77;22039;-71
2021/05/05 04:49:17;;;;;;;4.97;3.10;;;;;;;11.04;55.64;100119.47;1780132;79;21127;-71
2021/05/05 04:51:45;;;;;;;4.85;2.72;;;;;;;11.22;54.77;100110.05;1801387;79;21201;-71
2021/05/05 04:54:13;;;;;;;4.58;2.92;;;;;;;11.39;54.14;100111.89;1787040;79;21278;-73
2021/05/05 04:56:42;;;;;;;6.03;2.83;;;;;;;11.54;53.92;100107.01;1793952;77;21611;-71
2021/05/05 04:59:11;;;;;;;3.40;2.60;;;;;;;11.71;53.87;100102.64;1796363;77;21159;-72
2021/05/05 05:01:39;;;;;;;4.70;2.50;;;;;;;11.87;53.66;100098.05;1774535;79;21056;-71
2021/05/05 05:04:07;;;;;;;4.95;3.00;;;;;;;12.04;53.15;100090.98;1791421;79;21151;-71
2021/05/05 05:06:34;;;;;;;4.37;2.70;;;;;;;12.18;52.48;100094.66;1795562;79;21325;-71
2021/05/05 05:09:04;;;;;;;4.05;2.72;;;;;;;12.29;52.23;100088.14;1796722;79;21087;-71
2021/05/05 05:11:33;;;;;;;5.50;2.62;;;;;;;12.43;52.34;100093.65;1788064;79;21174;-72
2021/05/05 05:14:02;;;;;;;4.78;2.42;;;;;;;12.55;51.72;100090.62;1814351;79;21111;-71
2021/05/05 05:16:30;;;;;;;3.77;2.57;;;;;;;12.64;51.45;100085.71;1804147;77;21155;-72
2021/05/05 05:18:58;;;;;;;3.63;2.33;;;;;;;12.76;51.24;100077.82;1797377;79;21190;-72
2021/05/05 05:21:26;;;;;;;3.30;2.10;;;;;;;12.88;50.87;100077.70;1789508;79;21669;-71
2021/05/05 05:23:56;;;;;;;4.23;2.40;;;;;;;13.01;50.80;100072.76;1791713;77;21376;-72
2021/05/05 05:26:24;;;;;;;4.77;2.10;;;;;;;13.12;50.66;100072.34;1801617;79;21363;-71
2021/05/05 05:28:53;;;;;;;3.77;2.30;;;;;;;13.24;50.42;100064.45;1791235;77;21438;-71
2021/05/05 05:31:21;;;;;;;3.97;2.20;;;;;;;13.36;50.17;100060.31;1771520;80;22353;-71
2021/05/05 05:33:50;;;;;;;4.20;2.33;;;;;;;13.45;49.96;100065.02;1796910;78;21779;-72
2021/05/05 05:36:19;;;;;;;4.83;2.30;;;;;;;13.55;50.26;100064.34;1796719;77;21435;-73
2021/05/05 05:38:48;;;;;;;4.23;2.00;;;;;;;13.67;50.08;100059.11;1797771;77;21368;-71
2021/05/05 05:41:16;;;;;;;4.63;2.03;;;;;;;13.79;49.73;100056.25;1799687;77;21420;-72
2021/05/05 05:43:44;;;;;;;6.20;2.13;;;;;;;13.91;49.17;100053.11;1791051;77;21372;-70
2021/05/05 05:46:12;;;;;;;3.87;2.20;;;;;;;14.05;48.69;100054.54;1806819;77;21400;-71
2021/05/05 05:48:41;;;;;;;6.00;2.43;;;;;;;14.18;48.25;100055.14;1796037;79;21841;-72
2021/05/05 05:51:10;;;;;;;4.27;1.97;;;;;;;14.31;48.12;100047.67;1787821;79;21405;-71
2021/05/05 05:53:38;;;;;;;3.37;2.23;;;;;;;14.41;47.32;100035.95;1799595;79;21212;-72
2021/05/05 05:56:07;;;;;;;4.13;2.33;;;;;;;14.51;47.45;100034.46;1804446;79;21435;-71
2021/05/05 05:58:35;;;;;;;5.00;2.40;;;;;;;14.61;47.16;100032.14;1799012;79;21902;-71
2021/05/05 06:01:04;;;;;;;4.53;2.20;;;;;;;14.71;47.07;100033.30;1772857;79;21895;-70
2021/05/05 06:03:31;;;;;;;3.50;1.97;;;;;;;14.91;47.26;100025.95;1789984;79;21826;-72
2021/05/05 06:06:00;;;;;;;3.77;2.00;;;;;;;14.91;47.26;100025.95;1785987;79;21422;-72
2021/05/05 06:08:28;;;;;;;3.73;1.97;;;;;;;15.01;46.80;100016.33;1797310;79;21432;-70
2021/05/05 06:10:58;;;;;;;4.47;1.73;;;;;;;15.12;46.71;100015.02;1792272;79;21529;-70
2021/05/05 06:13:27;;;;;;;5.77;2.20;;;;;;;15.30;46.65;100021.39;1796835;79;21830;-71
2021/05/05 06:15:55;;;;;;;9.80;2.60;;;;;;;15.36;46.86;100008.61;1795392;79;22004;-70
2021/05/05 06:18:24;;;;;;;11.63;2.80;;;;;;;15.36;46.86;100008.61;1791071;77;21493;-71
2021/05/05 06:20:52;;;;;;;9.37;2.80;;;;;;;15.42;46.88;100012.78;1801684;78;21438;-71
2021/05/05 06:23:20;;;;;;;7.80;2.53;;;;;;;15.56;47.56;100014.88;1792358;79;21637;-69
2021/05/05 06:25:48;;;;;;;7.83;2.53;;;;;;;15.56;47.56;100014.88;1785680;79;21908;-72
2021/05/05 06:28:16;;;;;;;8.93;2.40;;;;;;;15.73;47.36;100016.16;1798933;77;21696;-73
2021/05/05 06:30:44;;;;;;;7.40;2.73;;;;;;;15.82;47.54;100004.36;1794891;79;21598;-72
2021/05/05 06:33:12;;;;;;;6.27;2.30;;;;;;;15.92;47.84;100017.59;1798088;79;22167;-73
2021/05/05 06:35:40;;;;;;;5.37;2.20;;;;;;;15.92;47.84;100017.59;1795862;79;21831;-72
2021/05/05 06:38:09;;;;;;;7.77;2.50;;;;;;;16.02;47.44;100012.51;1806146;77;21620;-71
2021/05/05 06:40:36;;;;;;;6.20;2.20;;;;;;;16.09;47.78;100012.90;1799906;79;21875;-71
2021/05/05 06:43:07;;;;;;;6.30;2.35;;;;;;;16.18;47.65;100004.30;1815462;79;21828;-72
2021/05/05 06:45:36;;;;;;;7.43;2.13;;;;;;;16.28;47.68;100010.55;1791080;77;21187;-70
2021/05/05 06:48:06;;;;;;;3.87;2.40;;;;;;;16.37;47.57;100008.70;1795905;79;21858;-71
2021/05/05 06:50:33;;;;;;;7.50;2.30;;;;;;;16.44;47.73;100004.21;1795844;79;21738;-71
2021/05/05 06:53:01;;;;;;;7.20;2.67;;;;;;;16.53;47.98;100009.10;1797499;79;21816;-70
2021/05/05 06:55:30;;;;;;;7.80;2.63;;;;;;;16.63;47.82;100006.14;1794897;77;21867;-72
2021/05/05 06:57:58;;;;;;;5.33;2.50;;;;;;;16.69;47.68;100005.45;1795017;79;21842;-72
2021/05/05 07:00:27;;;;;;;8.67;2.37;;;;;;;16.73;47.68;100005.06;1789321;79;21887;-72
2021/05/05 07:02:55;;;;;;;3.70;2.17;;;;;;;16.78;47.65;100004.94;1806490;79;22322;-72
2021/05/05 07:05:24;;;;;;;9.40;2.43;;;;;;;16.90;47.77;100005.70;1813825;79;22262;-72
2021/05/05 07:07:52;;;;;;;9.70;3.30;;;;;;;16.90;47.77;100005.70;1790226;79;21143;-72
2021/05/05 07:10:20;;;;;;;12.60;3.40;;;;;;;16.97;47.96;99999.30;1792689;79;21253;-71
2021/05/05 07:12:49;;;;;;;8.07;2.67;;;;;;;17.08;48.10;99991.97;1788486;79;21120;-71
2021/05/05 07:15:17;;;;;;;7.50;3.00;;;;;;;17.19;48.08;99988.97;1804213;79;22277;-72
2021/05/05 07:17:45;;;;;;;5.70;2.27;;;;;;;17.29;47.91;99989.45;1788590;79;21095;-73
2021/05/05 07:20:14;;;;;;;4.93;2.23;;;;;;;17.42;47.92;99989.08;1796897;77;21055;-72
2021/05/05 07:22:42;;;;;;;5.60;2.47;;;;;;;17.53;47.65;99986.29;1786631;79;21126;-72
2021/05/05 07:25:10;;;;;;;6.60;2.07;;;;;;;17.63;47.11;99978.99;1799746;79;21108;-72
2021/05/05 07:27:38;;;;;;;6.23;2.17;;;;;;;17.69;46.66;99984.47;1804396;79;21139;-71
2021/05/05 07:30:08;;;;;;;4.83;2.30;;;;;;;17.71;46.48;99972.80;1794828;77;21183;-71
2021/05/05 07:32:36;;;;;;;4.07;2.03;;;;;;;17.71;46.63;99972.25;1803215;79;21262;-72
2021/05/05 07:35:09;;;;;;;4.67;2.07;;;;;;;17.75;46.49;99979.16;1791514;77;21362;-72
2021/05/05 07:45:58;;;;;;;6.23;2.20;;;;;;;17.98;46.78;99987.91;1795474;79;21140;-73
2021/05/05 07:48:28;;;;;;;5.07;2.50;;;;;;;18.07;46.54;99983.84;1785385;79;22247;-74
2021/05/05 07:50:52;;;;;;;4.97;2.63;;;;;;;18.13;46.08;99979.83;1799176;77;21268;-72
2021/05/05 07:53:20;;;;;;;4.63;2.30;;;;;;;18.14;45.42;99978.17;1790821;79;21163;-71
2021/05/05 07:55:47;;;;;;;4.97;2.30;;;;;;;18.11;45.30;99982.08;1801294;77;21143;-72
2021/05/05 07:58:15;;;;;;;4.97;2.33;;;;;;;18.05;45.42;99982.23;1788194;79;21871;-72
2021/05/05 08:00:42;;;;;;;6.67;2.40;;;;;;;18.00;45.40;99986.47;1792502;77;22649;-72
2021/05/05 08:03:12;;;;;;;5.23;2.60;;;;;;;17.94;45.52;99983.70;1784205;79;21658;-71
2021/05/05 08:05:40;;;;;;;3.50;2.50;;;;;;;17.90;46.04;99982.76;1788789;79;21186;-72
2021/05/05 08:08:07;;;;;;;4.53;2.37;;;;;;;17.92;46.37;99978.37;1790989;79;21127;-71
2021/05/05 08:10:37;;;;;;;4.93;2.50;;;;;;;17.98;46.93;99969.78;1796456;77;21174;-72
2021/05/05 08:13:05;;;;;;;8.47;3.10;;;;;;;18.06;46.63;99970.87;1789642;79;21191;-72
2021/05/05 08:15:35;;;;;;;5.73;2.20;;;;;;;18.11;46.31;99962.60;1795816;77;21159;-72
2021/05/05 08:18:07;;;;;;;3.30;2.20;;;;;;;18.16;46.51;99965.68;1791615;79;21167;-73
2021/05/05 08:20:34;;;;;;;;;;;;;;;18.24;47.00;99971.64;1794330;79;21625;-72
2021/05/05 08:23:10;;;;;;;5.13;2.63;;;;;;;18.31;45.96;99967.88;1787296;79;20346;-72
2021/05/05 08:25:39;;;;;;;3.70;2.33;;;;;;;18.36;46.02;99956.08;1802296;77;21272;-72
2021/05/05 08:28:07;;;;;;;4.40;2.20;;;;;;;18.34;44.97;99955.06;1798091;77;21217;-71
2021/05/05 08:30:35;;;;;;;3.10;1.87;;;;;;;18.37;45.25;99955.77;1801558;79;21239;-72
2021/05/05 08:33:04;;;;;;;4.07;2.30;;;;;;;18.47;45.08;99951.36;1800286;79;21182;-71
2021/05/05 08:35:33;;;;;;;3.73;2.00;;;;;;;18.61;45.38;99943.58;1799268;77;21291;-72
2021/05/05 08:38:01;;;;;;;5.20;2.60;;;;;;;18.71;43.94;99946.70;1798517;79;22108;-72
2021/05/05 08:40:30;;;;;;;3.63;2.20;;;;;;;18.76;43.21;99945.77;1805351;77;21144;-74
2021/05/05 08:43:00;;;;;;;7.12;2.55;;;;;;;18.74;43.67;99950.14;1795520;79;21199;-72
2021/05/05 08:45:29;;;;;;;4.47;2.80;;;;;;;18.85;43.57;99951.91;1796081;79;21202;-73
2021/05/05 08:48:00;;;;;;;5.33;2.60;;;;;;;18.93;43.04;99933.49;1801188;79;21194;-72
2021/05/05 08:50:30;;;;;;;3.98;2.15;;;;;;;19.00;43.00;99934.32;1793500;77;21397;-72
2021/05/05 08:52:58;;;;;;;4.40;2.67;;;;;;;19.10;42.44;99931.80;1792732;79;21179;-72
2021/05/05 08:55:28;;;;;;;2.90;1.83;;;;;;;19.13;41.25;99941.97;1791340;79;21604;-72
2021/05/05 08:57:59;;;;;;;2.90;1.80;;;;;;;19.14;42.08;99930.00;1794136;79;21179;-72
2021/05/05 09:00:32;;;;;;;5.25;2.50;;;;;;;19.18;41.41;99937.69;1792865;77;21642;-72
2021/05/05 09:03:02;;;;;;;4.47;2.27;;;;;;;19.21;40.65;99933.77;1793698;79;22144;-70
2021/05/05 09:05:54;;;;;;;5.37;2.30;;;;;;;19.17;41.25;99930.70;1789291;79;21187;-73
2021/05/05 09:08:22;;;;;;;4.53;2.40;;;;;;;19.18;41.23;99926.86;1787324;79;21151;-69
2021/05/05 09:11:03;;;;;;;6.97;2.30;;;;;;;19.25;40.77;99924.98;1797875;77;21163;-70
2021/05/05 09:13:55;;;;;;;4.43;1.90;;;;;;;19.32;40.69;99927.41;1789841;79;21143;-71
2021/05/05 09:16:29;;;;;;;7.10;2.37;;;;;;;19.43;39.58;99924.52;1791853;77;22361;-72
2021/05/05 09:19:09;;;;;;;3.33;2.00;;;;;;;19.49;39.92;99929.18;1797662;79;21099;-71
2021/05/05 09:21:43;;;;;;;4.57;2.10;;;;;;;19.55;39.59;99919.73;1794917;77;21174;-71
2021/05/05 09:24:29;;;;;;;3.80;2.03;;;;;;;19.56;38.95;99919.16;1794149;79;21488;-72
2021/05/05 09:27:05;;;;;;;5.27;2.33;;;;;;;19.49;38.28;99911.58;1791036;77;21115;-71
2021/05/05 09:29:45;;;;;;;3.13;1.87;;;;;;;19.49;39.56;99914.85;1789131;77;21175;-71
2021/05/05 09:32:20;;;;;;;4.23;2.10;;;;;;;19.63;39.04;99908.58;1793542;79;21713;-73
2021/05/05 09:35:04;;;;;;;5.20;2.20;;;;;;;19.70;39.09;99901.29;1794840;79;21210;-71
2021/05/05 09:37:35;;;;;;;3.17;1.87;;;;;;;19.77;38.41;99895.55;1797281;77;21209;-71
2021/05/05 09:40:12;;;;;;;3.33;1.80;;;;;;;19.79;37.90;99887.89;1792241;79;21039;-72
2021/05/05 09:42:44;;;;;;;6.20;2.00;;;;;;;19.64;37.59;99889.86;1766442;77;23055;-71
2021/05/05 09:45:14;;;;;;;3.90;1.93;;;;;;;19.46;37.49;99883.80;1794279;77;21051;-71
2021/05/05 09:47:59;;;;;;;3.97;1.90;;;;;;;19.38;37.27;99889.53;1798832;77;21077;-71
2021/05/05 09:50:44;;;;;;;3.97;1.87;;;;;;;19.43;37.60;99889.88;1803401;77;21588;-71
2021/05/05 09:53:23;;;;;;;3.90;1.77;;;;;;;19.61;38.19;99880.48;1795294;77;21191;-72
2021/05/05 09:56:00;;;;;;;3.70;1.90;;;;;;;19.77;36.19;99883.92;1806893;79;21361;-72
2021/05/05 09:58:41;;;;;;;4.40;1.70;;;;;;;19.63;35.90;99881.48;1801949;79;21174;-72
2021/05/05 10:01:14;;;;;;;3.20;1.60;;;;;;;19.56;36.74;99877.97;1795692;79;21052;-71
2021/05/05 10:03:49;;;;;;;4.57;1.87;;;;;;;19.65;36.28;99883.34;1799085;79;21068;-71
2021/05/05 10:06:25;;;;;;;3.43;1.67;;;;;;;19.67;35.73;99881.86;1809154;79;21535;-71
2021/05/05 10:09:04;;;;;;;3.73;1.80;;;;;;;19.67;35.92;99879.15;1804232;78;21587;-68
2021/05/05 10:11:42;;;;;;;3.47;1.60;;;;;;;19.78;36.04;99870.05;1793792;77;21084;-67
2021/05/05 10:14:18;;;;;;;6.57;1.60;;;;;;;19.90;36.72;99880.90;1800932;77;21207;-68
2021/05/05 10:16:51;;;;;;;4.43;2.13;;;;;;;20.05;35.89;99869.20;1793504;79;21138;-67
2021/05/05 10:19:24;;;;;;;;;;;;;;;20.18;35.56;99873.50;1788404;79;21143;-71
2021/05/05 10:22:01;;;;;;;5.07;1.73;;;;;;;20.32;35.61;99861.75;1797823;79;21188;-71
2021/05/05 10:24:37;;;;;;;4.07;1.97;;;;;;;20.38;35.47;99864.46;1797170;77;21139;-70
2021/05/05 10:27:14;;;;;;;2.77;1.60;;;;;;;20.47;34.24;99863.56;1820317;76;23656;-71
2021/05/05 10:29:44;;;;;;;3.27;1.60;;;;;;;20.42;34.21;99864.57;1809527;78;21168;-72
2021/05/05 10:32:13;;;;;;;4.40;1.77;;;;;;;20.48;34.43;99855.64;1818039;78;21599;-72
2021/05/05 10:34:44;;;;;;;4.28;1.57;;;;;;;20.60;34.45;99857.81;1771166;78;21139;-74
2021/05/05 10:37:12;;;;;;;2.67;1.53;;;;;;;20.70;34.19;99851.70;1788864;79;21587;-72
2021/05/05 10:39:45;;;;;;;2.87;1.80;;;;;;;20.78;33.86;99848.84;1818099;79;21150;-72
2021/05/05 10:42:21;;;;;;;3.17;1.50;;;;;;;20.79;33.44;99846.34;1822108;77;21088;-72
2021/05/05 10:44:54;;;;;;;3.40;1.50;;;;;;;20.83;33.59;99839.69;1807024;77;21417;-72
2021/05/05 10:50:12;;;;;;;3.33;1.60;;;;;;;21.06;33.25;99835.89;1819793;77;23308;-72
2021/05/05 10:52:54;;;;;;;3.30;1.60;;;;;;;21.04;33.15;99838.94;1793469;79;21123;-72
2021/05/05 10:55:38;;;;;;;4.50;1.80;;;;;;;21.03;33.03;99824.36;1787481;79;21614;-72
2021/05/05 10:58:14;;;;;;;3.13;1.97;;;;;;;21.01;31.76;99825.26;1808405;79;21179;-70
2021/05/05 11:00:57;;;;;;;2.70;1.70;;;;;;;21.02;31.08;99819.47;1806663;79;21630;-71
2021/05/05 11:03:49;;;;;;;3.30;1.80;;;;;;;21.08;31.12;99823.53;1800300;78;22881;-71
2021/05/05 11:06:39;;;;;;;4.57;1.80;;;;;;;21.05;31.43;99826.93;1770960;80;22096;-71
2021/05/05 11:09:19;;;;;;;3.87;2.08;;;;;;;21.07;29.31;99832.81;1761024;80;21170;-71
2021/05/05 11:11:52;;;;;;;4.03;1.73;;;;;;;20.94;29.53;99826.42;1753357;81;21637;-71
2021/05/05 11:14:32;;;;;;;2.87;1.80;;;;;;;20.83;29.74;99829.62;1769216;80;21165;-70
2021/05/05 11:19:43;;;;;;;2.93;1.50;;;;;;;21.09;30.17;99821.59;1829715;76;23448;-71
2021/05/05 11:22:33;;;;;;;2.93;1.40;;;;;;;21.21;30.08;99826.98;1805886;77;21102;-71
2021/05/05 11:25:21;;;;;;;2.87;1.27;;;;;;;21.30;29.24;99820.05;1804303;77;21159;-70
2021/05/05 11:27:52;;;;;;;3.03;1.70;;;;;;;21.25;29.05;99826.51;1819473;77;21199;-70
2021/05/05 11:30:41;;;;;;;2.15;1.50;;;;;;;21.10;28.98;99825.91;1821704;78;27390;-70
2021/05/05 11:33:10;;;;;;;4.70;1.53;;;;;;;21.03;29.51;99823.79;1801278;77;21166;-71
2021/05/05 11:35:39;;;;;;;2.90;1.53;;;;;;;21.06;29.10;99814.17;1825391;77;21137;-71
2021/05/05 11:38:23;;;;;;;3.83;1.90;;;;;;;21.11;29.53;99823.98;1803965;77;22144;-71
2021/05/05 11:40:53;;;;;;;4.20;1.67;;;;;;;21.20;28.45;99815.91;1807025;77;21199;-72
2021/05/05 11:43:21;;;;;;;3.23;1.60;;;;;;;21.29;28.05;99814.41;1802000;77;21151;-71
2021/05/05 11:45:55;;;;;;;2.53;1.50;;;;;;;21.38;27.39;99801.47;1839308;76;21164;-72
2021/05/05 11:48:32;;;;;;;4.30;1.80;;;;;;;21.39;27.69;99838.92;1808723;77;21166;-72
2021/05/05 11:51:01;;;;;;;3.27;1.50;;;;;;;21.24;27.58;99829.59;1807257;77;22150;-72
2021/05/05 11:53:35;;;;;;;4.77;1.60;;;;;;;21.04;28.31;99814.50;1803728;77;21185;-72
2021/05/05 11:56:05;;;;;;;2.40;1.40;;;;;;;21.06;28.92;99814.17;1821338;77;21164;-71
2021/05/05 11:58:34;;;;;;;3.47;1.77;;;;;;;21.17;29.66;99805.73;1802621;78;21215;-72
2021/05/05 12:01:02;;;;;;;3.50;1.47;;;;;;;21.30;29.63;99803.19;1816923;76;21189;-72
2021/05/05 12:03:30;;;;;;;2.47;1.50;;;;;;;21.41;29.11;99804.85;1816848;77;21351;-72